• Join FlightAware (Why Join?)
  • Login
  • US Flag 
09:08PM EDT


 

Airport Tracker/Info


-or-


 

Live Flight TrackerFlight Track Log ✈ SWA1046 ✈ 24-Apr-2013 ✈ KSTL - KDAL

Flight Track Log - Related Links

Times and Time Zones

All times are in EDT time to prevent confusion due to time zone crossing. See the SWA1046 flight status page for this flight to view local times or setup timezone preferences in your user account.

Time Position Orientation Groundspeed Altitude Reporting Facility
EDT Latitude Longitude Course Direction KTS MPH feet Rate Location/Type
02:12PM 38.7592 -90.3428 305° West 168 193 2,400  Level FAA TRACON SMA TRACON (SMA)
02:12PM 38.7706 -90.3667 301° West 200 230 3,500 3,360 Climbing FAA TRACON SMA TRACON (SMA)
02:12PM 38.7733 -90.3894 279° West 220 253 4,600 3,120 Climbing FAA TRACON SMA TRACON (SMA)
02:13PM 38.7653 -90.4122 246° West 231 266 5,600 2,040 Climbing FAA TRACON SMA TRACON (SMA)
02:13PM 38.7469 -90.4344 223° Southwest 236 272 6,000 420 Climbing FAA TRACON SMA TRACON (SMA)
02:13PM 38.7297 -90.4506 216° Southwest 246 283 5,900  Descending FAA TRACON SMA TRACON (SMA)
02:14PM 38.7125 -90.4686 219° Southwest 257 296 6,000 120 Climbing FAA TRACON SMA TRACON (SMA)
02:14PM 38.6914 -90.4928 222° Southwest 265 305 6,000  Level FAA TRACON SMA TRACON (SMA)
02:14PM 38.6744 -90.5119 221° Southwest 265 305 6,000 540 Level FAA TRACON SMA TRACON (SMA)
02:15PM 38.6572 -90.5314 221° Southwest 266 306 6,400 2,400 Climbing FAA TRACON SMA TRACON (SMA)
02:15PM 38.6358 -90.5561 222° Southwest 271 312 7,600 3,960 Climbing FAA TRACON SMA TRACON (SMA)
02:15PM 38.6131 -90.5817 221° Southwest 280 322 9,200 4,320 Climbing FAA TRACON SMA TRACON (SMA)
02:16PM 38.5953 -90.6022 222° Southwest 282 325 10,700 3,600 Climbing FAA TRACON SMA TRACON (SMA)
02:16PM 38.5769 -90.6242 223° Southwest 290 334 11,500 2,400 Climbing FAA TRACON SMA TRACON (SMA)
02:16PM 38.5561 -90.6483 222° Southwest 315 362 12,200 3,060 Climbing FAA TRACON SMA TRACON (SMA)
02:17PM 38.5350 -90.6731 222° Southwest 334 384 13,500 4,620 Climbing FAA TRACON SMA TRACON (SMA)
02:17PM 38.5072 -90.7033 220° Southwest 342 394 15,300 4,680 Climbing FAA TRACON SMA TRACON (SMA)
02:17PM 38.4856 -90.7281 222° Southwest 340 391 16,700 4,020 Climbing FAA TRACON SMA TRACON (SMA)
02:18PM 38.4642 -90.7522 222° Southwest 336 387 18,000 4,560 Climbing FAA TRACON SMA TRACON (SMA)
02:18PM 38.4383 -90.7822 222° Southwest 328 377 19,700 4,320 Climbing FAA TRACON SMA TRACON (SMA)
02:18PM 38.4183 -90.8064 223° Southwest 324 373 20,900 3,360 Climbing FAA TRACON SMA TRACON (SMA)
02:19PM 38.3983 -90.8306 223° Southwest 322 371 22,000 3,420 Climbing FAA TRACON SMA TRACON (SMA)
02:19PM 38.3728 -90.8603 222° Southwest 325 374 23,200 3,060 Climbing FAA TRACON SMA TRACON (SMA)
02:19PM 38.3514 -90.8847 222° Southwest 330 380 24,000 2,580 Climbing FAA TRACON SMA TRACON (SMA)
02:20PM 38.3022 -90.9397 221° Southwest 342 394 25,800 2,400 Climbing FAA TRACON SMA TRACON (SMA)
02:20PM 38.2792 -90.9650 221° Southwest 349 402 26,500 2,100 Climbing FAA TRACON SMA TRACON (SMA)
02:21PM 38.2575 -90.9919 224° Southwest 353 406 27,200 2,520 Climbing FAA TRACON SMA TRACON (SMA)
02:21PM 38.2294 -91.0250 223° Southwest 358 412 28,200 2,580 Climbing FAA TRACON SMA TRACON (SMA)
02:21PM 38.2058 -91.0497 219° Southwest 358 412 29,000 2,220 Climbing FAA TRACON SMA TRACON (SMA)
02:22PM 38.1831 -91.0753 221° Southwest 357 411 29,700 2,280 Climbing FAA TRACON SMA TRACON (SMA)
02:22PM 38.1561 -91.1106 226° Southwest 359 413 30,500 2,400 Climbing FAA TRACON SMA TRACON (SMA)
02:22PM 38.1317 -91.1347 218° Southwest 360 414 31,300 2,160 Climbing FAA TRACON SMA TRACON (SMA)
02:23PM 38.1094 -91.1614 223° Southwest 358 412 32,000 2,100 Climbing FAA TRACON SMA TRACON (SMA)
02:23PM 38.0811 -91.1947 223° Southwest 360 414 32,700 1,980 Climbing FAA TRACON SMA TRACON (SMA)
02:23PM 38.0586 -91.2211 223° Southwest 361 415 33,300 1,500 Climbing FAA TRACON SMA TRACON (SMA)
02:24PM 38.0400 -91.2392 217° Southwest 361 415 33,700 2,220 Climbing FAA TRACON SMA TRACON (SMA)
02:25PM 37.9611 -91.3792 234° Southwest 359 413 36,300 1,920 Climbing Kansas City Center
02:26PM 37.8908 -91.4633 223° Southwest 350 403 37,700 1,200 Climbing Kansas City Center
02:27PM 37.8175 -91.5492 223° Southwest 353 406 38,900 1,080 Climbing Kansas City Center
02:28PM 37.7439 -91.6353 223° Southwest 357 411 40,000 480 Climbing Kansas City Center
02:29PM 37.6686 -91.7231 223° Southwest 362 417 40,000  Level Kansas City Center
02:30PM 37.5942 -91.8103 223° Southwest 363 418 40,000  Level Kansas City Center
02:31PM 37.5194 -91.8981 223° Southwest 363 418 40,000  Level Kansas City Center
02:32PM 37.4444 -91.9856 223° Southwest 363 418 40,000  Level Kansas City Center
02:33PM 37.3536 -92.0889 222° Southwest 364 419 40,000  Level Kansas City Center
02:34PM 37.2783 -92.1769 223° Southwest 366 421 40,000  Level Kansas City Center
02:35PM 37.2039 -92.2631 223° Southwest 363 418 40,000  Level Kansas City Center
02:36PM 37.1289 -92.3486 222° Southwest 362 417 40,000  Level Kansas City Center
02:37PM 37.0544 -92.4344 223° Southwest 361 415 40,000  Level Kansas City Center
02:38PM 36.9797 -92.5186 222° Southwest 359 413 40,000  Level Kansas City Center
02:39PM 36.9069 -92.6014 222° Southwest 355 409 40,000  Level Kansas City Center
02:40PM 36.8336 -92.6836 222° Southwest 353 406 40,000  Level Kansas City Center
02:41PM 36.7442 -92.7836 222° Southwest 356 410 40,000  Level Kansas City Center
02:42PM 36.6697 -92.8667 222° Southwest 358 412 40,000  Level Kansas City Center
02:43PM 36.5911 -92.9539 222° Southwest 359 413 40,000  Level Kansas City Center
02:44PM 36.5197 -93.0372 223° Southwest 366 421 40,000  Level Memphis Center
02:45PM 36.4450 -93.1197 222° Southwest 366 421 40,000  Level Memphis Center
02:48PM 36.2961 -93.2811 221° Southwest 358 412 40,000  Level Kansas City Center
02:48PM 36.2225 -93.3644 222° Southwest 366 421 40,000  Level Memphis Center
02:49PM 36.1497 -93.4439 221° Southwest 366 421 40,000  Level Memphis Center
02:50PM 36.0747 -93.5258 221° Southwest 366 421 40,000  Level Memphis Center
02:51PM 36.0017 -93.6078 222° Southwest 366 421 40,000  Level Memphis Center
02:52PM 35.9286 -93.6894 222° Southwest 361 415 40,000  Level Memphis Center
02:53PM 35.8536 -93.7683 220° Southwest 361 415 40,000  Level Memphis Center
02:54PM 35.7783 -93.8497 221° Southwest 361 415 40,000  Level Memphis Center
02:55PM 35.7008 -93.9333 221° Southwest 361 415 40,000  Level Memphis Center
02:56PM 35.6297 -94.0122 222° Southwest 361 415 40,000  Level Memphis Center
02:57PM 35.5542 -94.0931 221° Southwest 366 421 40,000  Level Memphis Center
02:58PM 35.4789 -94.1711 220° Southwest 366 421 40,000  Level Memphis Center
02:59PM 35.4011 -94.2567 222° Southwest 366 421 40,000  Level Memphis Center
03:00PM 35.3278 -94.3372 222° Southwest 366 421 40,000  Level Memphis Center
03:01PM 35.2522 -94.4178 221° Southwest 366 421 40,000  Level Memphis Center
03:02PM 35.1786 -94.4978 222° Southwest 366 421 40,000  Level Memphis Center
03:04PM 35.0789 -94.6128 223° Southwest 356 410 40,000  Level Fort Worth Center
03:05PM 35.0033 -94.6939 221° Southwest 361 415 40,000  Level Fort Worth Center
03:06PM 34.9281 -94.7747 221° Southwest 361 415 40,000  Level Fort Worth Center
03:07PM 34.8203 -94.8161 197° South 359 413 40,000  Level Fort Worth Center
03:08PM 34.7125 -94.8469 193° South 377 434 40,000  Level Fort Worth Center
03:09PM 34.6089 -94.8728 192° South 382 440 40,000  Level Fort Worth Center
03:10PM 34.5092 -94.8961 191° South 376 433 40,000  Level Fort Worth Center
03:11PM 34.4053 -94.9217 191° South 376 433 40,000 -660 Level Fort Worth Center
03:12PM 34.3056 -94.9447 191° South 376 433 38,700 -1,680 Descending Fort Worth Center
03:13PM 34.2339 -95.0144 219° Southwest 343 395 36,700 -2,040 Descending Fort Worth Center
03:14PM 34.1856 -95.1036 237° Southwest 319 367 34,700 -1,860 Descending Fort Worth Center
03:15PM 34.1392 -95.1878 236° Southwest 319 367 33,000 -1,680 Descending Fort Worth Center
03:16PM 34.0906 -95.2717 235° Southwest 313 360 31,400 -1,620 Descending Fort Worth Center
03:17PM 34.0375 -95.3458 229° Southwest 307 353 29,800 -1,560 Descending Fort Worth Center
03:18PM 33.9761 -95.4247 227° Southwest 307 353 28,300 -1,620 Descending Fort Worth Center
03:19PM 33.9086 -95.5114 227° Southwest 337 388 26,600 -1,740 Descending Fort Worth Center
03:20PM 33.8492 -95.5878 227° Southwest 349 402 24,900 -1,800 Descending Fort Worth Center
03:21PM 33.7794 -95.6667 223° Southwest 349 402 23,100 -1,620 Descending Fort Worth Center
03:22PM 33.6794 -95.6886 190° South 349 402 21,700 -1,500 Descending Fort Worth Center
03:23PM 33.5725 -95.6583 167° South 361 415 20,200 -1,380 Descending Fort Worth Center
03:24PM 33.4833 -95.6900 197° South 325 374 19,000 -900 Descending Fort Worth Center
03:25PM 33.4386 -95.7928 242° Southwest 303 349 18,500 -900 Descending Fort Worth Center
03:26PM 33.4128 -95.8806 251° West 314 361 17,200 -1,500 Descending Fort Worth Center
03:27PM 33.3764 -95.9881 248° West 319 367 15,600 -1,680 Descending Fort Worth Center
03:28PM 33.3503 -96.0731 250° West 312 359 13,900 -2,160 Descending Fort Worth Center
03:29PM 33.3158 -96.1756 248° West 312 359 11,300 -2,400 Descending Fort Worth Center
03:30PM 33.2872 -96.2603 248° West 312 359 9,100 -1,200 Descending Fort Worth Center
03:31PM 33.2528 -96.3503 245° Southwest 285 328 9,000 -60 Descending Fort Worth Center
03:32PM 33.2156 -96.4078 232° Southwest 260 299 9,000  Level Fort Worth Center
03:33PM 33.1661 -96.4828 232° Southwest 260 299 9,000 -900 Level Fort Worth Center
03:34PM 33.1014 -96.5033 195° South 260 299 7,300 -1,920 Descending Fort Worth Center
03:35PM 33.0181 -96.5289 194° South 276 318 5,300 -1,200 Descending Fort Worth Center
03:36PM 32.9453 -96.5619 201° Southwest 281 323 5,000 -540 Descending Fort Worth Center
03:37PM 32.8808 -96.5947 203° Southwest 286 329 4,300 -900 Descending Fort Worth Center
03:38PM 32.8100 -96.6347 205° Southwest 267 307 3,300 -840 Descending Fort Worth Center
03:38PM 32.7667 -96.6500 197° South 243 280 3,000 -240 Descending Dallas / Fort Worth TRACON
03:39PM 32.7500 -96.7000 248° West 208 239 3,000 -300 Level Dallas / Fort Worth TRACON
03:40PM 32.7667 -96.7500 292° West 169 194 2,500 -660 Descending Dallas / Fort Worth TRACON
03:41PM 32.8000 -96.7833 320° Northwest 143 165 1,700 -780 Descending Dallas / Fort Worth TRACON
03:42PM 32.8167 -96.8167 301° West 133 153 1,000 -720 Descending Dallas / Fort Worth TRACON
03:46PM 32.8333 -96.8500 307° West  Level FlightAware Approximate